Time;durP1;ratioP1;P1;durP2;ratioP2;P2;SDS_P1;SDS_P2;PMS_P1;PMS_P2;Temp;Humidity;BMP_temperature;BMP_pressure;BME280_temperature;BME280_humidity;BME280_pressure;Samples;Min_cycle;Max_cycle;Signal;HPM_P1;HPM_P2
2021/12/19 00:01:06;;;;;;;30.92;11.00;;;5.20;99.90;;;;;;10330651;28;20053;-90
2021/12/19 00:11:29;;;;;;;24.52;9.18;;;5.40;99.90;;;;;;10352756;28;20151;-90
2021/12/19 00:16:32;;;;;;;31.95;9.77;;;5.40;99.90;;;;;;10348765;28;20060;-90
2021/12/19 00:21:35;;;;;;;28.50;10.18;;;5.30;99.90;;;;;;10350199;28;20060;-90
2021/12/19 00:26:37;;;;;;;25.20;8.02;;;5.40;99.90;;;;;;10347301;28;20041;-90
2021/12/19 00:31:39;;;;;;;23.85;8.65;;;5.50;99.90;;;;;;10279966;28;20061;-91
2021/12/19 00:36:43;;;;;;;32.83;9.88;;;5.50;99.90;;;;;;10325900;28;20048;-91
2021/12/19 00:41:52;;;;;;;26.80;8.82;;;5.40;99.90;;;;;;10330638;28;20141;-91
2021/12/19 00:47:04;;;;;;;25.50;9.30;;;5.40;99.90;;;;;;10358906;28;20050;-91
2021/12/19 00:52:06;;;;;;;29.52;9.35;;;5.40;99.90;;;;;;10345320;28;20050;-91
2021/12/19 00:57:08;;;;;;;25.10;8.60;;;5.30;99.90;;;;;;10328325;28;20145;-91
2021/12/19 01:02:10;;;;;;;27.27;9.95;;;5.40;99.90;;;;;;10335485;28;20055;-91
2021/12/19 01:07:12;;;;;;;28.13;9.35;;;5.50;99.90;;;;;;10348446;28;20045;-91
2021/12/19 01:12:13;;;;;;;26.35;9.45;;;5.50;99.90;;;;;;10330296;28;20068;-91
2021/12/19 01:17:15;;;;;;;24.75;8.50;;;5.60;99.90;;;;;;10338360;28;20471;-92
2021/12/19 01:22:17;;;;;;;33.13;10.90;;;5.50;99.90;;;;;;10343324;28;20042;-92
2021/12/19 01:27:19;;;;;;;28.98;9.00;;;5.60;99.90;;;;;;10341468;28;20062;-92
2021/12/19 01:32:21;;;;;;;27.50;8.63;;;5.60;99.90;;;;;;10341240;28;20800;-92
2021/12/19 01:37:23;;;;;;;28.17;9.60;;;5.60;99.90;;;;;;10346582;28;20053;-91
2021/12/19 01:42:33;;;;;;;31.50;9.80;;;5.60;99.90;;;;;;10343903;28;20057;-91
2021/12/19 01:47:35;;;;;;;22.58;7.82;;;5.60;99.90;;;;;;10325531;28;20080;-92
2021/12/19 01:52:38;;;;;;;32.38;9.55;;;5.60;99.90;;;;;;10343877;28;20069;-91
2021/12/19 01:57:40;;;;;;;28.23;8.88;;;5.50;99.90;;;;;;10326642;28;20057;-91
2021/12/19 02:02:42;;;;;;;26.40;8.30;;;5.60;99.90;;;;;;10323279;28;20068;-91
2021/12/19 02:07:47;;;;;;;30.52;8.30;;;5.60;99.90;;;;;;10349972;28;20060;-91
2021/12/19 02:12:51;;;;;;;27.73;8.48;;;5.60;99.90;;;;;;10298782;28;20813;-91
2021/12/19 02:17:56;;;;;;;23.92;7.70;;;5.60;99.90;;;;;;10343865;28;20052;-91
2021/12/19 02:22:59;;;;;;;24.30;8.23;;;5.60;99.90;;;;;;10327213;28;20068;-91
2021/12/19 02:28:02;;;;;;;26.38;8.45;;;5.60;99.90;;;;;;10329320;28;20180;-91
2021/12/19 02:33:10;;;;;;;29.30;8.57;;;5.70;99.90;;;;;;10341544;28;20076;-91
2021/12/19 02:39:18;;;;;;;22.30;6.47;;;5.70;99.90;;;;;;10342502;28;20048;-91
2021/12/19 02:49:20;;;;;;;17.65;6.82;;;5.50;99.90;;;;;;10341101;28;20053;-91
2021/12/19 02:54:24;;;;;;;21.63;7.65;;;5.60;99.90;;;;;;10338349;28;20062;-91
2021/12/19 02:59:31;;;;;;;18.23;6.82;;;5.70;99.90;;;;;;10326641;28;20045;-92
2021/12/19 03:04:34;;;;;;;15.68;6.03;;;5.60;99.90;;;;;;10336389;28;20054;-91
2021/12/19 03:11:08;;;;;;;19.75;6.93;;;5.60;99.90;;;;;;10320580;28;20403;-91
2021/12/19 03:20:32;;;;;;;9.85;3.85;;;5.80;99.90;;;;;;10327134;28;20447;-92
2021/12/19 03:25:35;;;;;;;7.50;3.42;;;5.80;99.90;;;;;;10320510;28;20058;-91
2021/12/19 03:30:38;;;;;;;6.13;2.53;;;5.70;99.90;;;;;;10325043;28;20061;-91
2021/12/19 03:35:41;;;;;;;5.60;3.20;;;5.70;99.90;;;;;;10342031;28;20052;-91
2021/12/19 03:40:51;;;;;;;6.38;1.83;;;5.70;99.90;;;;;;10332085;28;20145;-91
2021/12/19 03:45:53;;;;;;;4.10;1.45;;;5.60;99.90;;;;;;10358909;28;20061;-91
2021/12/19 03:50:55;;;;;;;3.70;1.90;;;5.60;99.90;;;;;;10329542;28;20050;-91
2021/12/19 03:55:57;;;;;;;3.17;1.77;;;5.70;99.90;;;;;;10341307;28;20523;-91
2021/12/19 04:01:02;;;;;;;5.20;2.33;;;5.70;99.90;;;;;;10335920;28;20050;-91
2021/12/19 04:06:04;;;;;;;6.57;2.38;;;5.70;99.90;;;;;;10356458;28;20041;-91
2021/12/19 04:11:06;;;;;;;4.85;2.08;;;5.70;99.90;;;;;;10346499;28;20053;-91
2021/12/19 04:16:08;;;;;;;4.53;2.00;;;5.70;99.90;;;;;;10354573;28;20636;-91
2021/12/19 04:21:10;;;;;;;4.13;1.85;;;5.70;99.90;;;;;;10361243;28;20056;-91
2021/12/19 04:26:12;;;;;;;5.60;1.30;;;5.70;99.90;;;;;;10328754;28;20041;-91
2021/12/19 04:31:14;;;;;;;3.35;1.45;;;5.80;99.90;;;;;;10339505;28;20054;-90
2021/12/19 04:36:23;;;;;;;5.07;1.70;;;5.80;99.90;;;;;;10345124;28;20046;-92
2021/12/19 04:41:54;;;;;;;3.78;1.65;;;5.90;99.90;;;;;;10343872;28;20046;-91
2021/12/19 04:58:19;;;;;;;7.60;2.65;;;5.90;99.90;;;;;;10352288;28;20152;-91
2021/12/19 05:03:14;;;;;;;6.15;2.15;;;5.80;99.90;;;;;;10347743;28;20060;-91
2021/12/19 05:19:05;;;;;;;10.15;3.60;;;5.60;99.90;;;;;;10325884;28;20483;-91
2021/12/19 05:29:20;;;;;;;5.53;1.70;;;5.40;99.90;;;;;;10343386;28;20061;-91
2021/12/19 05:34:22;;;;;;;8.05;2.30;;;5.40;99.90;;;;;;10340689;28;21430;-91
2021/12/19 05:49:55;;;;;;;8.80;3.13;;;5.60;99.90;;;;;;10341817;28;20053;-91
2021/12/19 05:54:57;;;;;;;9.07;3.20;;;5.70;99.90;;;;;;10327514;28;20054;-91
2021/12/19 05:59:59;;;;;;;6.03;2.05;;;5.70;99.90;;;;;;10338827;28;20139;-92
2021/12/19 06:05:03;;;;;;;8.23;3.00;;;5.80;99.90;;;;;;10342448;28;20492;-91
2021/12/19 06:10:06;;;;;;;8.75;3.00;;;5.80;99.90;;;;;;10340863;28;20050;-92
2021/12/19 06:15:10;;;;;;;6.78;3.35;;;5.70;99.90;;;;;;10340708;28;20046;-92
2021/12/19 06:20:12;;;;;;;7.00;2.75;;;5.80;99.90;;;;;;10324252;28;20066;-92
2021/12/19 06:25:14;;;;;;;5.65;2.72;;;5.80;99.90;;;;;;10324364;28;20136;-92
2021/12/19 06:30:16;;;;;;;8.30;3.17;;;5.80;99.90;;;;;;10335431;28;20046;-91
2021/12/19 06:35:18;;;;;;;7.65;3.45;;;5.90;99.90;;;;;;10324477;28;20053;-91
2021/12/19 06:40:21;;;;;;;8.50;3.92;;;5.90;99.90;;;;;;10341700;28;20492;-91
2021/12/19 06:45:23;;;;;;;7.32;3.42;;;5.90;99.90;;;;;;10341993;28;20057;-91
2021/12/19 06:50:25;;;;;;;8.77;3.35;;;5.90;99.90;;;;;;10325977;28;20148;-91
2021/12/19 06:55:27;;;;;;;10.00;2.97;;;5.90;99.90;;;;;;10321752;28;20049;-91
2021/12/19 07:00:29;;;;;;;7.20;2.92;;;6.00;99.90;;;;;;10345029;28;20137;-91
2021/12/19 07:05:31;;;;;;;8.02;3.50;;;5.90;99.90;;;;;;10341948;28;20061;-91
2021/12/19 07:10:34;;;;;;;11.32;3.60;;;6.00;99.90;;;;;;10323074;28;20076;-91
2021/12/19 07:15:35;;;;;;;8.85;3.30;;;5.90;99.90;;;;;;10342308;28;20042;-92
2021/12/19 07:20:42;;;;;;;7.28;2.83;;;5.90;99.90;;;;;;10341060;28;20058;-93
2021/12/19 07:25:47;;;;;;;9.90;4.07;;;5.80;99.90;;;;;;10336350;28;20085;-92
2021/12/19 07:30:53;;;;;;;10.57;4.32;;;5.80;99.90;;;;;;10314499;28;20131;-91
2021/12/19 07:35:55;;;;;;;10.00;3.47;;;5.90;99.90;;;;;;10325682;28;20053;-91
2021/12/19 07:40:59;;;;;;;9.15;4.28;;;6.00;99.90;;;;;;10339593;28;20042;-91
2021/12/19 07:46:00;;;;;;;12.07;4.32;;;5.90;99.90;;;;;;10339625;28;20125;-92
2021/12/19 07:51:02;;;;;;;16.38;5.30;;;5.90;99.90;;;;;;10343398;28;20042;-92
2021/12/19 07:56:04;;;;;;;9.93;4.53;;;5.90;99.90;;;;;;10336316;28;20057;-91
2021/12/19 08:01:07;;;;;;;10.60;4.10;;;5.90;99.90;;;;;;10334653;28;20081;-91
2021/12/19 08:06:08;;;;;;;12.70;4.50;;;5.90;99.90;;;;;;10340804;28;20061;-91
2021/12/19 08:16:31;;;;;;;8.25;3.70;;;5.90;99.90;;;;;;10354165;28;20069;-92
2021/12/19 08:21:33;;;;;;;9.45;4.00;;;6.00;99.90;;;;;;10339732;28;20401;-92
2021/12/19 08:26:36;;;;;;;10.70;4.20;;;6.00;99.90;;;;;;10349065;28;20061;-92
2021/12/19 08:31:43;;;;;;;13.07;4.68;;;6.10;99.90;;;;;;10323571;28;20046;-92
2021/12/19 08:36:50;;;;;;;15.10;5.80;;;6.10;99.90;;;;;;10350912;28;20500;-92
2021/12/19 08:41:52;;;;;;;15.18;5.35;;;6.10;99.90;;;;;;10328583;28;20046;-92
2021/12/19 08:46:54;;;;;;;15.43;5.30;;;6.00;99.90;;;;;;10347791;28;20038;-91
2021/12/19 08:51:56;;;;;;;13.70;4.55;;;6.10;99.90;;;;;;10325291;28;20042;-91
2021/12/19 08:56:58;;;;;;;15.07;5.15;;;6.10;99.90;;;;;;10350101;28;20061;-91
2021/12/19 09:02:01;;;;;;;14.23;5.20;;;6.20;99.90;;;;;;10327517;28;20065;-92
2021/12/19 09:07:03;;;;;;;14.32;5.80;;;6.40;99.90;;;;;;10322924;28;20468;-91
2021/12/19 09:12:06;;;;;;;11.93;5.07;;;6.40;99.90;;;;;;10347081;28;20060;-92
2021/12/19 09:17:07;;;;;;;17.70;6.35;;;6.50;99.90;;;;;;10353297;28;20136;-92
2021/12/19 09:22:10;;;;;;;14.48;5.20;;;6.50;99.90;;;;;;10321189;28;20687;-92
2021/12/19 09:27:12;;;;;;;15.10;5.85;;;6.80;99.90;;;;;;10330969;28;20046;-92
2021/12/19 09:32:14;;;;;;;16.75;5.95;;;6.80;99.90;;;;;;10362107;28;20096;-92
2021/12/19 09:37:16;;;;;;;17.17;5.88;;;6.70;99.90;;;;;;10322711;28;20073;-92
2021/12/19 09:42:21;;;;;;;15.38;5.90;;;6.90;99.90;;;;;;10325149;28;20041;-92
2021/12/19 09:47:23;;;;;;;19.58;7.13;;;6.90;99.90;;;;;;10355662;28;20563;-89
2021/12/19 09:52:25;;;;;;;16.63;6.55;;;7.10;99.90;;;;;;10343724;28;20056;-89
2021/12/19 09:57:27;;;;;;;19.10;6.45;;;7.10;99.90;;;;;;10344507;28;20054;-90
2021/12/19 10:02:28;;;;;;;19.23;6.50;;;7.10;99.90;;;;;;10346497;28;20088;-89
2021/12/19 10:07:31;;;;;;;14.95;6.30;;;7.10;99.90;;;;;;10341381;28;20490;-91
2021/12/19 10:12:48;;;;;;;21.00;6.55;;;7.30;99.90;;;;;;10330865;28;20058;-91
2021/12/19 10:17:58;;;;;;;;;;;7.50;99.90;;;;;;10343017;28;20080;-88
2021/12/19 10:23:13;;;;;;;18.95;5.97;;;7.40;99.90;;;;;;10320254;28;19922;-89
2021/12/19 10:28:14;;;;;;;14.57;6.35;;;7.50;99.90;;;;;;10328061;28;20066;-89
2021/12/19 10:33:19;;;;;;;18.58;6.70;;;7.60;99.90;;;;;;10363166;28;20045;-89
2021/12/19 10:38:37;;;;;;;18.65;6.63;;;7.60;99.90;;;;;;10347992;28;20061;-89
2021/12/19 10:43:56;;;;;;;17.90;6.57;;;7.60;99.90;;;;;;10335817;28;20160;-89
2021/12/19 10:49:01;;;;;;;13.88;5.43;;;7.70;99.90;;;;;;10347143;28;20639;-89
2021/12/19 10:54:07;;;;;;;20.13;7.07;;;7.70;99.90;;;;;;10338759;28;20159;-90
2021/12/19 10:59:13;;;;;;;15.75;5.47;;;7.70;99.90;;;;;;10325927;28;20056;-90
2021/12/19 11:04:20;;;;;;;13.13;5.27;;;7.80;99.90;;;;;;10344409;28;20586;-90
2021/12/19 11:09:24;;;;;;;12.80;4.80;;;7.80;99.90;;;;;;10340362;28;20145;-90
2021/12/19 11:14:44;;;;;;;13.38;5.13;;;7.90;99.90;;;;;;10339717;28;20057;-90
2021/12/19 11:19:47;;;;;;;14.10;5.20;;;7.90;99.90;;;;;;10342334;28;20054;-90
2021/12/19 11:24:51;;;;;;;15.30;5.60;;;7.90;99.90;;;;;;10345342;28;20081;-89
2021/12/19 11:29:55;;;;;;;13.50;4.95;;;7.90;99.90;;;;;;10345305;28;20046;-89
2021/12/19 11:35:12;;;;;;;18.33;5.32;;;7.80;99.90;;;;;;10349701;28;20042;-90
2021/12/19 11:40:16;;;;;;;16.13;5.75;;;8.00;99.90;;;;;;10344212;28;20042;-90
2021/12/19 11:45:49;;;;;;;17.05;5.65;;;8.10;99.90;;;;;;10342917;28;20056;-90
2021/12/19 11:50:58;;;;;;;13.05;4.78;;;8.20;99.90;;;;;;10357271;28;20060;-90
2021/12/19 11:56:05;;;;;;;14.70;5.78;;;8.30;99.90;;;;;;10335355;28;20116;-90
2021/12/19 12:01:13;;;;;;;15.77;5.63;;;8.30;99.90;;;;;;10365097;28;20110;-90
2021/12/19 12:06:20;;;;;;;13.82;5.05;;;8.40;99.90;;;;;;10350215;28;20067;-88
2021/12/19 12:11:29;;;;;;;15.60;6.13;;;8.50;99.90;;;;;;10353090;28;20053;-89
2021/12/19 12:16:39;;;;;;;17.02;5.55;;;8.60;99.90;;;;;;10348657;28;20050;-90
2021/12/19 12:21:48;;;;;;;16.52;6.13;;;8.50;99.90;;;;;;10338322;28;20092;-89
2021/12/19 12:27:02;;;;;;;14.57;5.70;;;8.50;99.90;;;;;;10342733;28;20054;-89
2021/12/19 12:32:08;;;;;;;12.32;4.65;;;8.50;99.90;;;;;;10338063;28;20045;-89
2021/12/19 12:37:11;;;;;;;12.02;5.13;;;8.50;99.90;;;;;;10355747;28;20064;-89
2021/12/19 12:42:16;;;;;;;14.55;5.25;;;8.40;99.90;;;;;;10353905;28;20053;-89
2021/12/19 12:47:17;;;;;;;11.68;4.22;;;8.30;99.90;;;;;;10356013;28;20100;-89
2021/12/19 12:52:20;;;;;;;10.98;3.65;;;8.20;99.90;;;;;;10336926;28;20077;-89
2021/12/19 12:57:22;;;;;;;11.98;4.30;;;8.20;99.90;;;;;;10345178;28;20512;-89
2021/12/19 13:02:32;;;;;;;9.05;3.47;;;8.30;99.90;;;;;;10348346;28;22937;-89
2021/12/19 13:07:34;;;;;;;11.73;3.85;;;8.40;99.90;;;;;;10352011;28;20085;-90
2021/12/19 13:12:41;;;;;;;7.93;3.33;;;8.40;99.90;;;;;;10349345;28;20057;-89
2021/12/19 13:17:50;;;;;;;8.20;3.30;;;8.30;99.80;;;;;;10352013;28;20050;-89
2021/12/19 13:22:59;;;;;;;10.00;3.88;;;8.30;99.90;;;;;;10341220;28;20129;-89
2021/12/19 13:28:05;;;;;;;8.82;3.22;;;8.40;99.40;;;;;;10357153;28;20058;-90
2021/12/19 13:33:16;;;;;;;9.38;4.47;;;8.30;99.90;;;;;;10341165;28;20042;-89
2021/12/19 13:38:32;;;;;;;11.95;4.30;;;8.20;99.90;;;;;;10342371;28;20447;-89
2021/12/19 13:43:37;;;;;;;12.02;4.93;;;8.00;99.90;;;;;;10369511;28;20058;-89
2021/12/19 13:48:54;;;;;;;10.93;4.32;;;7.80;99.90;;;;;;10333898;28;20053;-89
2021/12/19 13:54:03;;;;;;;9.50;4.40;;;7.80;99.90;;;;;;10336135;28;21153;-90
2021/12/19 13:59:17;;;;;;;10.52;4.57;;;7.70;99.90;;;;;;10360958;28;20033;-90
2021/12/19 14:04:22;;;;;;;9.48;4.13;;;7.60;99.90;;;;;;10341505;28;20161;-90
2021/12/19 14:09:26;;;;;;;8.80;3.88;;;7.60;99.90;;;;;;10355197;28;20562;-90
2021/12/19 14:14:30;;;;;;;11.85;4.00;;;7.50;99.90;;;;;;10353672;28;20050;-89
2021/12/19 14:19:41;;;;;;;11.73;4.22;;;7.50;99.90;;;;;;10354786;28;20056;-90
2021/12/19 14:24:50;;;;;;;10.75;4.07;;;7.40;99.90;;;;;;10341771;28;20038;-89
2021/12/19 14:29:54;;;;;;;9.05;4.05;;;7.20;99.90;;;;;;10353345;28;21425;-90
2021/12/19 14:35:02;;;;;;;9.95;4.35;;;7.20;99.90;;;;;;10350159;28;20064;-90
2021/12/19 14:40:11;;;;;;;7.07;3.33;;;7.20;99.90;;;;;;10342452;28;20041;-90
2021/12/19 14:45:29;;;;;;;10.98;4.28;;;7.30;99.90;;;;;;10354472;28;20096;-90
2021/12/19 14:50:47;;;;;;;7.32;3.33;;;7.30;99.90;;;;;;10359378;28;20452;-89
2021/12/19 15:02:13;;;;;;;6.47;3.05;;;7.20;99.90;;;;;;10363310;28;20046;-90
2021/12/19 15:07:22;;;;;;;6.45;3.28;;;7.10;99.90;;;;;;10350080;28;20052;-89
2021/12/19 15:12:24;;;;;;;6.28;3.10;;;7.10;99.90;;;;;;10362585;28;20046;-90
2021/12/19 15:17:25;;;;;;;7.05;3.15;;;7.10;99.90;;;;;;10366357;28;20153;-91
2021/12/19 15:22:31;;;;;;;5.72;2.70;;;7.00;99.90;;;;;;10354932;28;20060;-90
2021/12/19 15:27:33;;;;;;;7.47;3.33;;;7.00;99.90;;;;;;10349473;28;20054;-89
2021/12/19 15:32:36;;;;;;;5.07;2.55;;;6.90;99.90;;;;;;10357978;28;20058;-89
2021/12/19 15:37:38;;;;;;;9.52;3.30;;;6.90;99.90;;;;;;10365384;28;20061;-90
2021/12/19 15:42:42;;;;;;;5.68;2.97;;;6.90;99.90;;;;;;10366056;28;20054;-89
2021/12/19 15:47:44;;;;;;;5.57;3.28;;;6.90;99.90;;;;;;10359746;28;20522;-89
2021/12/19 15:52:47;;;;;;;7.60;3.83;;;6.80;99.90;;;;;;10350703;28;20126;-89
2021/12/19 15:58:01;;;;;;;9.32;2.97;;;6.80;99.90;;;;;;10365007;28;20077;-90
2021/12/19 16:03:04;;;;;;;6.68;3.00;;;6.80;99.90;;;;;;10345313;28;20046;-90
2021/12/19 16:08:06;;;;;;;5.72;2.72;;;6.70;99.90;;;;;;10366376;28;20566;-89
2021/12/19 16:13:08;;;;;;;7.15;2.92;;;6.70;99.90;;;;;;10368168;28;20388;-90
2021/12/19 16:18:10;;;;;;;5.32;2.63;;;6.70;99.90;;;;;;10356689;28;20057;-90
2021/12/19 16:23:13;;;;;;;7.65;3.28;;;6.70;99.90;;;;;;10188744;28;20046;-91
2021/12/19 16:28:47;;;;;;;7.13;3.15;;;6.70;99.90;;;;;;9948757;28;20055;-91
2021/12/19 16:33:53;;;;;;;8.15;3.35;;;6.80;99.90;;;;;;10274081;28;20106;-91
2021/12/19 16:38:58;;;;;;;7.47;3.97;;;6.70;99.90;;;;;;10366612;28;20069;-91
2021/12/19 16:44:00;;;;;;;6.53;3.00;;;6.80;99.90;;;;;;10363620;28;20045;-90
2021/12/19 16:49:09;;;;;;;7.57;3.95;;;6.80;99.90;;;;;;10354223;28;20420;-91
2021/12/19 16:54:11;;;;;;;8.43;3.03;;;6.80;99.90;;;;;;10356961;28;20053;-90
2021/12/19 16:59:14;;;;;;;7.53;3.97;;;6.80;99.90;;;;;;10331005;28;20068;-91
2021/12/19 17:04:17;;;;;;;8.15;3.85;;;6.80;99.90;;;;;;10312609;28;20111;-91
2021/12/19 17:09:36;;;;;;;10.23;3.70;;;6.80;99.90;;;;;;10346104;28;20424;-91
2021/12/19 17:15:14;;;;;;;10.30;4.18;;;6.90;99.90;;;;;;10383309;28;20050;-91
2021/12/19 17:20:17;;;;;;;9.43;3.95;;;6.90;99.90;;;;;;10360970;28;20125;-91
2021/12/19 17:25:22;;;;;;;8.18;4.07;;;6.80;99.90;;;;;;10354009;28;20056;-91
2021/12/19 17:30:38;;;;;;;15.25;5.75;;;6.80;99.90;;;;;;10367967;28;20058;-91
2021/12/19 17:35:41;;;;;;;12.05;5.45;;;6.90;99.90;;;;;;10352642;28;20128;-91
2021/12/19 17:40:56;;;;;;;11.75;5.05;;;6.90;99.90;;;;;;10337799;28;20042;-91
2021/12/19 17:46:01;;;;;;;11.32;4.35;;;6.80;99.90;;;;;;10338480;28;20505;-92
2021/12/19 17:51:07;;;;;;;12.10;5.25;;;6.80;99.90;;;;;;10370216;28;20057;-92
2021/12/19 17:56:10;;;;;;;9.38;4.53;;;6.80;99.90;;;;;;10333497;28;20140;-91
2021/12/19 18:01:16;;;;;;;9.38;4.32;;;6.80;99.90;;;;;;10329191;28;20050;-91
2021/12/19 18:06:19;;;;;;;10.73;3.88;;;6.80;99.90;;;;;;10363084;28;20061;-90
2021/12/19 18:11:22;;;;;;;9.05;3.92;;;6.80;99.90;;;;;;10354936;28;20103;-90
2021/12/19 18:16:25;;;;;;;10.73;4.75;;;6.80;99.90;;;;;;10371613;28;20045;-90
2021/12/19 18:21:27;;;;;;;8.90;4.07;;;6.80;99.90;;;;;;10352599;28;20169;-91
2021/12/19 18:26:30;;;;;;;9.45;3.90;;;6.80;99.90;;;;;;10349938;28;20111;-90
2021/12/19 18:31:34;;;;;;;8.27;3.85;;;6.80;99.90;;;;;;10331191;28;20364;-90
2021/12/19 18:36:41;;;;;;;18.38;6.63;;;6.80;99.90;;;;;;10341762;28;20057;-90
2021/12/19 18:42:07;;;;;;;9.27;3.77;;;6.80;99.90;;;;;;10340389;28;20070;-89
2021/12/19 18:57:24;;;;;;;7.45;3.05;;;6.80;99.90;;;;;;10372431;28;20045;-90
2021/12/19 19:02:40;;;;;;;8.52;3.47;;;6.70;99.90;;;;;;10335098;28;20080;-89
2021/12/19 19:07:45;;;;;;;6.88;3.20;;;6.70;99.90;;;;;;10335766;28;20696;-90
2021/12/19 19:12:51;;;;;;;7.43;3.20;;;6.70;99.90;;;;;;10329442;28;20046;-92
2021/12/19 19:17:53;;;;;;;7.40;2.88;;;6.80;99.90;;;;;;10344464;28;20041;-91
2021/12/19 19:23:25;;;;;;;7.30;2.25;;;6.80;99.90;;;;;;10349646;28;20415;-91
2021/12/19 19:28:26;;;;;;;7.50;2.90;;;6.80;99.90;;;;;;10374635;28;20126;-91
2021/12/19 19:33:31;;;;;;;7.18;2.95;;;6.80;99.90;;;;;;10372914;28;20045;-91
2021/12/19 19:44:08;;;;;;;5.22;2.40;;;6.80;99.90;;;;;;10342200;28;20042;-92
2021/12/19 19:49:17;;;;;;;6.10;2.60;;;6.70;99.90;;;;;;10326225;28;20050;-92
2021/12/19 19:54:23;;;;;;;8.00;3.35;;;6.70;99.90;;;;;;10320023;28;20077;-92
2021/12/19 19:59:29;;;;;;;6.70;2.53;;;6.70;99.90;;;;;;10149515;28;20540;-91
2021/12/19 20:04:33;;;;;;;4.00;1.98;;;6.70;99.90;;;;;;10288740;28;20054;-91
2021/12/19 20:09:36;;;;;;;2.58;1.23;;;6.70;99.90;;;;;;10296399;28;20050;-92
2021/12/19 20:14:39;;;;;;;4.38;1.48;;;6.70;99.90;;;;;;10301753;28;20060;-92
2021/12/19 20:19:46;;;;;;;2.72;1.20;;;6.70;99.90;;;;;;10258554;28;20053;-92
2021/12/19 20:24:51;;;;;;;3.95;1.25;;;6.70;99.90;;;;;;10347259;28;20050;-92
2021/12/19 20:29:54;;;;;;;2.55;0.70;;;6.70;99.90;;;;;;10320531;28;20048;-91
2021/12/19 20:34:56;;;;;;;3.28;0.75;;;6.70;99.90;;;;;;10345006;28;20140;-91
2021/12/19 20:40:00;;;;;;;1.77;0.93;;;6.70;99.90;;;;;;10379030;28;20530;-90
2021/12/19 20:45:05;;;;;;;1.88;0.68;;;6.70;99.90;;;;;;10361511;28;20052;-91
2021/12/19 20:50:14;;;;;;;1.48;0.52;;;6.70;99.90;;;;;;10342476;28;20034;-91
2021/12/19 20:55:16;;;;;;;1.45;0.60;;;6.70;99.90;;;;;;10359425;28;20037;-91
2021/12/19 21:00:18;;;;;;;2.55;0.40;;;6.70;99.90;;;;;;10367265;28;20029;-91
2021/12/19 21:05:21;;;;;;;1.17;0.43;;;6.70;99.90;;;;;;10356878;28;20049;-90
2021/12/19 21:10:23;;;;;;;0.82;0.50;;;6.70;99.90;;;;;;10378379;28;20042;-90
2021/12/19 21:20:46;;;;;;;2.72;0.60;;;6.70;99.90;;;;;;10391761;28;20044;-89
2021/12/19 21:25:47;;;;;;;0.47;0.30;;;6.70;99.90;;;;;;10362826;28;20065;-90
2021/12/19 21:30:51;;;;;;;1.58;0.40;;;6.70;99.90;;;;;;10350188;28;20049;-91
2021/12/19 21:41:42;;;;;;;;;;;6.80;99.90;;;;;;10356197;28;20049;-92
2021/12/19 21:46:44;;;;;;;0.40;0.20;;;6.80;99.90;;;;;;10355818;28;19921;-92
2021/12/19 21:51:47;;;;;;;1.77;0.40;;;6.80;99.90;;;;;;10371850;28;20050;-91
2021/12/19 21:56:49;;;;;;;0.70;0.30;;;6.80;99.90;;;;;;10379306;28;20053;-91
2021/12/19 22:01:51;;;;;;;1.17;0.30;;;6.80;99.90;;;;;;10366977;28;20033;-91
2021/12/19 22:06:53;;;;;;;1.48;0.30;;;6.90;99.90;;;;;;10349892;28;20042;-91
2021/12/19 22:12:06;;;;;;;1.75;0.30;;;6.90;99.90;;;;;;10373808;28;20124;-91
2021/12/19 22:17:08;;;;;;;0.93;0.30;;;6.90;99.90;;;;;;10370643;28;20623;-91
2021/12/19 22:22:09;;;;;;;0.82;0.50;;;6.90;99.90;;;;;;10374077;28;20122;-91
2021/12/19 22:27:19;;;;;;;1.73;0.40;;;6.90;99.90;;;;;;10371713;28;20064;-92
2021/12/19 22:32:21;;;;;;;1.67;0.45;;;6.90;99.90;;;;;;10355396;28;20233;-92
2021/12/19 22:37:23;;;;;;;1.15;0.50;;;6.90;99.90;;;;;;10337412;28;20692;-92
2021/12/19 22:42:25;;;;;;;1.10;0.40;;;7.00;99.90;;;;;;10343885;28;20053;-92
2021/12/19 22:47:27;;;;;;;3.10;0.38;;;7.00;99.90;;;;;;10324183;28;20060;-92
2021/12/19 22:52:30;;;;;;;3.10;0.40;;;6.90;99.90;;;;;;10328788;28;20054;-92
2021/12/19 22:57:31;;;;;;;1.20;0.50;;;6.90;99.90;;;;;;10331197;28;20050;-92
2021/12/19 23:02:35;;;;;;;2.03;0.30;;;6.90;99.90;;;;;;10325427;28;20049;-91
2021/12/19 23:07:38;;;;;;;2.15;0.30;;;6.90;99.90;;;;;;10368330;28;20274;-92
2021/12/19 23:12:43;;;;;;;0.55;0.20;;;6.90;99.90;;;;;;10388419;28;20092;-92
2021/12/19 23:17:56;;;;;;;2.70;0.20;;;6.90;99.90;;;;;;10392961;28;20040;-92
2021/12/19 23:22:58;;;;;;;1.50;0.40;;;6.90;99.90;;;;;;10349290;28;20045;-92
2021/12/19 23:28:00;;;;;;;0.88;0.30;;;6.90;99.90;;;;;;10358937;28;20052;-92
2021/12/19 23:48:46;;;;;;;1.60;0.40;;;6.70;99.90;;;;;;10346045;28;20117;-92
2021/12/19 23:53:47;;;;;;;1.27;0.40;;;6.70;99.90;;;;;;10382585;28;20418;-92
2021/12/19 23:58:49;;;;;;;0.60;0.30;;;6.70;99.90;;;;;;10346327;28;20081;-91
